sensor_id;sensor_type;location;lat;lon;timestamp;pressure;altitude;pressure_sealevel;temperature;humidity
55517;BME280;41724;51.176;-0.708;2022-09-17T00:01:38;101800.02;;;10.69;44.52
55517;BME280;41724;51.176;-0.708;2022-09-17T00:04:05;101792.20;;;10.71;44.12
55517;BME280;41724;51.176;-0.708;2022-09-17T00:06:35;101799.04;;;10.37;44.40
55517;BME280;41724;51.176;-0.708;2022-09-17T00:09:03;101805.11;;;10.25;44.52
55517;BME280;41724;51.176;-0.708;2022-09-17T00:11:34;101801.36;;;9.98;44.57
55517;BME280;41724;51.176;-0.708;2022-09-17T00:14:03;101796.58;;;10.63;44.24
55517;BME280;41724;51.176;-0.708;2022-09-17T00:16:33;101803.45;;;10.16;44.07
55517;BME280;41724;51.176;-0.708;2022-09-17T00:19:03;101807.06;;;10.09;44.19
55517;BME280;41724;51.176;-0.708;2022-09-17T00:21:31;101810.25;;;10.26;44.69
55517;BME280;41724;51.176;-0.708;2022-09-17T00:24:00;101804.12;;;10.22;44.44
55517;BME280;41724;51.176;-0.708;2022-09-17T00:26:28;101806.28;;;9.91;45.45
55517;BME280;41724;51.176;-0.708;2022-09-17T00:28:56;101801.81;;;9.94;45.17
55517;BME280;41724;51.176;-0.708;2022-09-17T00:31:24;101803.31;;;9.94;45.51
55517;BME280;41724;51.176;-0.708;2022-09-17T00:33:52;101801.21;;;9.70;45.51
55517;BME280;41724;51.176;-0.708;2022-09-17T00:36:20;101801.54;;;9.82;45.31
55517;BME280;41724;51.176;-0.708;2022-09-17T00:38:49;101804.92;;;9.85;45.10
55517;BME280;41724;51.176;-0.708;2022-09-17T00:41:17;101801.47;;;9.85;45.16
55517;BME280;41724;51.176;-0.708;2022-09-17T00:43:45;101800.16;;;9.87;44.74
55517;BME280;41724;51.176;-0.708;2022-09-17T00:46:23;101796.31;;;9.62;45.14
55517;BME280;41724;51.176;-0.708;2022-09-17T00:48:52;101796.21;;;9.64;45.18
55517;BME280;41724;51.176;-0.708;2022-09-17T00:51:26;101797.72;;;9.40;45.25
55517;BME280;41724;51.176;-0.708;2022-09-17T00:53:54;101795.81;;;9.81;44.87
55517;BME280;41724;51.176;-0.708;2022-09-17T00:56:25;101794.25;;;9.75;44.96
55517;BME280;41724;51.176;-0.708;2022-09-17T00:58:53;101793.35;;;9.55;45.03
55517;BME280;41724;51.176;-0.708;2022-09-17T01:01:21;101795.17;;;9.67;44.87
55517;BME280;41724;51.176;-0.708;2022-09-17T01:03:49;101795.70;;;9.85;44.69
55517;BME280;41724;51.176;-0.708;2022-09-17T01:06:22;101791.79;;;9.85;45.24
55517;BME280;41724;51.176;-0.708;2022-09-17T01:09:05;101791.08;;;9.42;45.41
55517;BME280;41724;51.176;-0.708;2022-09-17T01:11:45;101793.03;;;9.32;45.33
55517;BME280;41724;51.176;-0.708;2022-09-17T01:14:27;101800.02;;;9.35;45.40
55517;BME280;41724;51.176;-0.708;2022-09-17T01:17:06;101797.98;;;9.40;45.45
55517;BME280;41724;51.176;-0.708;2022-09-17T01:19:57;101795.24;;;9.34;44.92
55517;BME280;41724;51.176;-0.708;2022-09-17T01:22:33;101795.08;;;9.43;44.85
55517;BME280;41724;51.176;-0.708;2022-09-17T01:25:19;101803.70;;;9.60;44.94
55517;BME280;41724;51.176;-0.708;2022-09-17T01:28:05;101807.29;;;9.18;45.64
55517;BME280;41724;51.176;-0.708;2022-09-17T01:30:58;101802.49;;;9.34;45.37
55517;BME280;41724;51.176;-0.708;2022-09-17T01:33:34;101809.32;;;9.19;45.07
55517;BME280;41724;51.176;-0.708;2022-09-17T01:36:16;101812.65;;;9.35;45.28
55517;BME280;41724;51.176;-0.708;2022-09-17T01:38:52;101811.10;;;9.09;45.69
55517;BME280;41724;51.176;-0.708;2022-09-17T01:41:27;101809.98;;;9.48;45.65
55517;BME280;41724;51.176;-0.708;2022-09-17T01:44:01;101814.17;;;8.94;45.66
55517;BME280;41724;51.176;-0.708;2022-09-17T01:46:35;101810.00;;;9.08;45.82
55517;BME280;41724;51.176;-0.708;2022-09-17T01:49:05;101813.13;;;9.65;44.67
55517;BME280;41724;51.176;-0.708;2022-09-17T01:51:37;101817.32;;;9.18;44.86
55517;BME280;41724;51.176;-0.708;2022-09-17T01:54:08;101815.59;;;9.42;45.33
55517;BME280;41724;51.176;-0.708;2022-09-17T01:56:39;101819.09;;;9.33;45.94
55517;BME280;41724;51.176;-0.708;2022-09-17T01:59:12;101821.64;;;9.04;46.99
55517;BME280;41724;51.176;-0.708;2022-09-17T02:01:42;101824.06;;;8.84;46.47
55517;BME280;41724;51.176;-0.708;2022-09-17T02:04:17;101821.32;;;8.94;45.94
55517;BME280;41724;51.176;-0.708;2022-09-17T02:06:50;101820.15;;;9.09;45.54
55517;BME280;41724;51.176;-0.708;2022-09-17T02:09:21;101822.09;;;9.22;45.53
55517;BME280;41724;51.176;-0.708;2022-09-17T02:11:52;101816.16;;;8.94;46.02
55517;BME280;41724;51.176;-0.708;2022-09-17T02:14:25;101819.52;;;9.06;46.07
55517;BME280;41724;51.176;-0.708;2022-09-17T02:16:58;101821.15;;;9.31;45.91
55517;BME280;41724;51.176;-0.708;2022-09-17T02:19:29;101820.37;;;9.18;46.22
55517;BME280;41724;51.176;-0.708;2022-09-17T02:22:02;101821.74;;;8.98;45.75
55517;BME280;41724;51.176;-0.708;2022-09-17T02:24:36;101825.64;;;9.35;45.92
55517;BME280;41724;51.176;-0.708;2022-09-17T02:27:14;101827.59;;;9.22;45.91
55517;BME280;41724;51.176;-0.708;2022-09-17T02:29:45;101820.82;;;9.14;46.15
55517;BME280;41724;51.176;-0.708;2022-09-17T02:32:12;101820.43;;;9.22;45.24
55517;BME280;41724;51.176;-0.708;2022-09-17T02:34:39;101822.63;;;9.07;45.42
55517;BME280;41724;51.176;-0.708;2022-09-17T02:37:07;101825.31;;;9.26;45.41
55517;BME280;41724;51.176;-0.708;2022-09-17T02:39:35;101819.99;;;9.13;45.94
55517;BME280;41724;51.176;-0.708;2022-09-17T02:42:10;101820.83;;;8.84;46.60
55517;BME280;41724;51.176;-0.708;2022-09-17T02:44:48;101823.75;;;8.89;46.66
55517;BME280;41724;51.176;-0.708;2022-09-17T02:47:47;101821.82;;;9.03;47.07
55517;BME280;41724;51.176;-0.708;2022-09-17T02:50:31;101825.09;;;8.78;47.29
55517;BME280;41724;51.176;-0.708;2022-09-17T02:53:10;101828.11;;;8.48;48.02
55517;BME280;41724;51.176;-0.708;2022-09-17T02:55:45;101826.80;;;8.43;48.14
55517;BME280;41724;51.176;-0.708;2022-09-17T02:58:22;101826.36;;;8.41;47.71
55517;BME280;41724;51.176;-0.708;2022-09-17T03:00:50;101828.64;;;8.79;48.22
55517;BME280;41724;51.176;-0.708;2022-09-17T03:03:22;101825.45;;;8.70;47.84
55517;BME280;41724;51.176;-0.708;2022-09-17T03:05:52;101831.09;;;8.48;47.91
55517;BME280;41724;51.176;-0.708;2022-09-17T03:08:27;101831.45;;;8.79;46.87
55517;BME280;41724;51.176;-0.708;2022-09-17T03:10:55;101830.72;;;8.76;46.97
55517;BME280;41724;51.176;-0.708;2022-09-17T03:13:23;101830.42;;;8.87;46.68
55517;BME280;41724;51.176;-0.708;2022-09-17T03:15:50;101824.35;;;8.60;46.58
55517;BME280;41724;51.176;-0.708;2022-09-17T03:18:18;101824.56;;;9.06;46.46
55517;BME280;41724;51.176;-0.708;2022-09-17T03:20:45;101821.72;;;9.04;46.31
55517;BME280;41724;51.176;-0.708;2022-09-17T03:23:13;101826.65;;;9.08;46.62
55517;BME280;41724;51.176;-0.708;2022-09-17T03:25:40;101825.37;;;8.92;46.81
55517;BME280;41724;51.176;-0.708;2022-09-17T03:28:07;101822.12;;;8.56;47.63
55517;BME280;41724;51.176;-0.708;2022-09-17T03:30:35;101820.30;;;8.63;47.53
55517;BME280;41724;51.176;-0.708;2022-09-17T03:33:02;101819.18;;;8.78;46.58
55517;BME280;41724;51.176;-0.708;2022-09-17T03:35:30;101820.99;;;9.01;46.81
55517;BME280;41724;51.176;-0.708;2022-09-17T03:37:57;101820.40;;;8.89;46.13
55517;BME280;41724;51.176;-0.708;2022-09-17T03:40:24;101819.45;;;9.24;46.11
55517;BME280;41724;51.176;-0.708;2022-09-17T03:42:52;101820.85;;;8.89;46.88
55517;BME280;41724;51.176;-0.708;2022-09-17T03:45:19;101820.09;;;8.66;47.99
55517;BME280;41724;51.176;-0.708;2022-09-17T03:47:47;101814.58;;;8.73;46.97
55517;BME280;41724;51.176;-0.708;2022-09-17T03:50:14;101816.16;;;8.81;46.98
55517;BME280;41724;51.176;-0.708;2022-09-17T03:52:42;101817.33;;;8.86;46.50
55517;BME280;41724;51.176;-0.708;2022-09-17T03:55:09;101820.82;;;8.83;46.55
55517;BME280;41724;51.176;-0.708;2022-09-17T03:57:36;101821.26;;;8.97;45.97
55517;BME280;41724;51.176;-0.708;2022-09-17T04:00:05;101822.28;;;8.97;46.21
55517;BME280;41724;51.176;-0.708;2022-09-17T04:02:32;101817.66;;;8.95;46.34
55517;BME280;41724;51.176;-0.708;2022-09-17T04:04:59;101818.14;;;8.64;46.40
55517;BME280;41724;51.176;-0.708;2022-09-17T04:07:27;101814.04;;;8.76;46.36
55517;BME280;41724;51.176;-0.708;2022-09-17T04:09:54;101816.63;;;8.92;46.62
55517;BME280;41724;51.176;-0.708;2022-09-17T04:12:21;101814.32;;;8.53;46.32
55517;BME280;41724;51.176;-0.708;2022-09-17T04:14:49;101814.09;;;8.87;46.39
55517;BME280;41724;51.176;-0.708;2022-09-17T04:17:16;101821.45;;;8.37;46.72
55517;BME280;41724;51.176;-0.708;2022-09-17T04:19:44;101821.47;;;8.69;46.49
55517;BME280;41724;51.176;-0.708;2022-09-17T04:22:11;101818.65;;;8.68;46.24
55517;BME280;41724;51.176;-0.708;2022-09-17T04:24:38;101822.00;;;8.75;46.04
55517;BME280;41724;51.176;-0.708;2022-09-17T04:27:06;101816.93;;;8.75;46.10
55517;BME280;41724;51.176;-0.708;2022-09-17T04:29:33;101817.57;;;8.70;46.24
55517;BME280;41724;51.176;-0.708;2022-09-17T04:32:01;101819.36;;;8.63;46.35
55517;BME280;41724;51.176;-0.708;2022-09-17T04:34:29;101819.39;;;8.72;46.13
55517;BME280;41724;51.176;-0.708;2022-09-17T04:36:58;101816.67;;;8.82;45.75
55517;BME280;41724;51.176;-0.708;2022-09-17T04:39:25;101819.12;;;8.71;46.01
55517;BME280;41724;51.176;-0.708;2022-09-17T04:41:53;101819.81;;;8.74;46.23
55517;BME280;41724;51.176;-0.708;2022-09-17T04:44:20;101822.76;;;8.58;46.15
55517;BME280;41724;51.176;-0.708;2022-09-17T04:46:47;101816.67;;;8.31;46.42
55517;BME280;41724;51.176;-0.708;2022-09-17T04:49:15;101817.32;;;8.25;46.22
55517;BME280;41724;51.176;-0.708;2022-09-17T04:51:42;101811.00;;;8.60;46.05
55517;BME280;41724;51.176;-0.708;2022-09-17T04:54:09;101812.68;;;8.36;45.87
55517;BME280;41724;51.176;-0.708;2022-09-17T04:56:37;101815.74;;;8.47;45.92
55517;BME280;41724;51.176;-0.708;2022-09-17T04:59:04;101816.43;;;8.50;46.27
55517;BME280;41724;51.176;-0.708;2022-09-17T05:01:32;101818.26;;;8.35;46.05
55517;BME280;41724;51.176;-0.708;2022-09-17T05:03:59;101823.47;;;8.45;45.65
55517;BME280;41724;51.176;-0.708;2022-09-17T05:06:26;101824.27;;;8.50;45.70
55517;BME280;41724;51.176;-0.708;2022-09-17T05:08:54;101825.66;;;8.42;46.10
55517;BME280;41724;51.176;-0.708;2022-09-17T05:11:21;101826.14;;;8.15;46.15
55517;BME280;41724;51.176;-0.708;2022-09-17T05:13:49;101831.28;;;8.34;46.29
55517;BME280;41724;51.176;-0.708;2022-09-17T05:16:21;101830.56;;;8.10;46.22
55517;BME280;41724;51.176;-0.708;2022-09-17T05:18:49;101828.25;;;8.31;46.10
55517;BME280;41724;51.176;-0.708;2022-09-17T05:21:16;101830.30;;;8.29;45.84
55517;BME280;41724;51.176;-0.708;2022-09-17T05:23:43;101830.47;;;8.47;45.67
55517;BME280;41724;51.176;-0.708;2022-09-17T05:26:11;101829.40;;;8.23;46.13
55517;BME280;41724;51.176;-0.708;2022-09-17T05:28:38;101833.93;;;8.12;45.76
55517;BME280;41724;51.176;-0.708;2022-09-17T05:31:05;101836.45;;;8.14;45.84
55517;BME280;41724;51.176;-0.708;2022-09-17T05:33:32;101833.98;;;8.06;45.97
55517;BME280;41724;51.176;-0.708;2022-09-17T05:36:00;101832.94;;;7.84;46.28
55517;BME280;41724;51.176;-0.708;2022-09-17T05:38:27;101831.77;;;8.12;46.42
55517;BME280;41724;51.176;-0.708;2022-09-17T05:40:55;101836.57;;;7.96;46.03
55517;BME280;41724;51.176;-0.708;2022-09-17T05:43:22;101842.11;;;8.16;46.04
55517;BME280;41724;51.176;-0.708;2022-09-17T05:45:49;101848.63;;;8.33;45.78
55517;BME280;41724;51.176;-0.708;2022-09-17T05:48:17;101846.95;;;8.46;46.31
55517;BME280;41724;51.176;-0.708;2022-09-17T05:50:44;101851.24;;;8.24;46.58
55517;BME280;41724;51.176;-0.708;2022-09-17T05:53:12;101849.88;;;8.35;45.86
55517;BME280;41724;51.176;-0.708;2022-09-17T05:55:39;101849.84;;;8.20;45.61
55517;BME280;41724;51.176;-0.708;2022-09-17T05:58:09;101848.48;;;8.19;46.15
55517;BME280;41724;51.176;-0.708;2022-09-17T06:00:36;101846.78;;;8.28;46.09
55517;BME280;41724;51.176;-0.708;2022-09-17T06:03:03;101853.08;;;8.29;46.37
55517;BME280;41724;51.176;-0.708;2022-09-17T06:05:31;101851.12;;;8.23;46.72
55517;BME280;41724;51.176;-0.708;2022-09-17T06:07:58;101856.37;;;8.37;46.28
55517;BME280;41724;51.176;-0.708;2022-09-17T06:10:25;101864.06;;;8.48;46.13
55517;BME280;41724;51.176;-0.708;2022-09-17T06:12:56;101872.46;;;8.61;45.97
55517;BME280;41724;51.176;-0.708;2022-09-17T06:15:23;101868.66;;;8.62;46.11
55517;BME280;41724;51.176;-0.708;2022-09-17T06:17:50;101864.27;;;8.47;47.06
55517;BME280;41724;51.176;-0.708;2022-09-17T06:20:18;101863.61;;;8.31;47.41
55517;BME280;41724;51.176;-0.708;2022-09-17T06:22:45;101870.26;;;8.57;47.10
55517;BME280;41724;51.176;-0.708;2022-09-17T06:25:13;101872.20;;;8.75;46.36
55517;BME280;41724;51.176;-0.708;2022-09-17T06:27:40;101867.43;;;8.39;46.72
55517;BME280;41724;51.176;-0.708;2022-09-17T06:30:08;101866.95;;;8.52;47.50
55517;BME280;41724;51.176;-0.708;2022-09-17T06:32:35;101864.59;;;8.87;47.21
55517;BME280;41724;51.176;-0.708;2022-09-17T06:35:02;101865.69;;;8.84;47.41
55517;BME280;41724;51.176;-0.708;2022-09-17T06:37:31;101870.62;;;8.96;47.12
55517;BME280;41724;51.176;-0.708;2022-09-17T06:39:58;101872.82;;;8.95;47.37
55517;BME280;41724;51.176;-0.708;2022-09-17T06:42:26;101872.17;;;9.39;47.65
55517;BME280;41724;51.176;-0.708;2022-09-17T06:44:53;101872.06;;;9.24;47.66
55517;BME280;41724;51.176;-0.708;2022-09-17T06:47:23;101874.10;;;9.22;47.98
55517;BME280;41724;51.176;-0.708;2022-09-17T06:49:50;101875.33;;;9.25;48.61
55517;BME280;41724;51.176;-0.708;2022-09-17T06:52:17;101872.01;;;9.27;48.39
55517;BME280;41724;51.176;-0.708;2022-09-17T06:54:45;101869.71;;;9.68;48.55
55517;BME280;41724;51.176;-0.708;2022-09-17T06:57:12;101869.68;;;9.69;48.28
55517;BME280;41724;51.176;-0.708;2022-09-17T06:59:40;101867.38;;;9.70;48.89
55517;BME280;41724;51.176;-0.708;2022-09-17T07:02:08;101864.71;;;9.83;48.83
55517;BME280;41724;51.176;-0.708;2022-09-17T07:04:35;101861.41;;;9.87;49.60
55517;BME280;41724;51.176;-0.708;2022-09-17T07:07:03;101855.88;;;9.81;49.55
55517;BME280;41724;51.176;-0.708;2022-09-17T07:09:30;101857.68;;;9.88;49.71
55517;BME280;41724;51.176;-0.708;2022-09-17T07:11:57;101862.74;;;10.05;49.69
55517;BME280;41724;51.176;-0.708;2022-09-17T07:14:25;101869.61;;;10.72;49.40
55517;BME280;41724;51.176;-0.708;2022-09-17T07:16:52;101872.55;;;10.01;50.28
55517;BME280;41724;51.176;-0.708;2022-09-17T07:19:19;101872.94;;;10.70;50.01
55517;BME280;41724;51.176;-0.708;2022-09-17T07:21:47;101869.21;;;10.47;50.05
55517;BME280;41724;51.176;-0.708;2022-09-17T07:24:14;101865.93;;;10.78;49.90
55517;BME280;41724;51.176;-0.708;2022-09-17T07:26:41;101863.63;;;10.87;49.91
55517;BME280;41724;51.176;-0.708;2022-09-17T07:29:09;101861.08;;;10.98;49.60
55517;BME280;41724;51.176;-0.708;2022-09-17T07:31:37;101861.87;;;11.24;49.70
55517;BME280;41724;51.176;-0.708;2022-09-17T07:34:04;101863.16;;;11.76;49.14
55517;BME280;41724;51.176;-0.708;2022-09-17T07:36:31;101869.65;;;11.62;49.57
55517;BME280;41724;51.176;-0.708;2022-09-17T07:38:59;101865.26;;;11.34;49.55
55517;BME280;41724;51.176;-0.708;2022-09-17T07:41:26;101862.84;;;11.21;49.25
55517;BME280;41724;51.176;-0.708;2022-09-17T07:43:54;101859.67;;;11.76;48.83
55517;BME280;41724;51.176;-0.708;2022-09-17T07:46:21;101854.66;;;11.59;49.00
55517;BME280;41724;51.176;-0.708;2022-09-17T07:48:49;101853.72;;;11.74;48.62
55517;BME280;41724;51.176;-0.708;2022-09-17T07:51:16;101852.17;;;11.81;47.87
55517;BME280;41724;51.176;-0.708;2022-09-17T07:53:44;101849.14;;;12.29;48.13
55517;BME280;41724;51.176;-0.708;2022-09-17T07:56:11;101845.53;;;12.21;47.53
55517;BME280;41724;51.176;-0.708;2022-09-17T07:58:39;101846.62;;;12.58;46.91
55517;BME280;41724;51.176;-0.708;2022-09-17T08:01:07;101845.61;;;12.31;46.99
55517;BME280;41724;51.176;-0.708;2022-09-17T08:03:35;101846.26;;;12.55;46.97
55517;BME280;41724;51.176;-0.708;2022-09-17T08:06:04;101846.59;;;12.83;45.93
55517;BME280;41724;51.176;-0.708;2022-09-17T08:08:34;101844.93;;;12.97;45.86
55517;BME280;41724;51.176;-0.708;2022-09-17T08:11:03;101850.30;;;13.37;45.61
55517;BME280;41724;51.176;-0.708;2022-09-17T08:13:31;101847.29;;;13.19;44.88
55517;BME280;41724;51.176;-0.708;2022-09-17T08:15:59;101854.50;;;13.52;45.05
55517;BME280;41724;51.176;-0.708;2022-09-17T08:18:26;101859.87;;;13.51;45.86
55517;BME280;41724;51.176;-0.708;2022-09-17T08:20:56;101860.68;;;13.76;44.90
55517;BME280;41724;51.176;-0.708;2022-09-17T08:23:23;101859.28;;;13.96;43.96
55517;BME280;41724;51.176;-0.708;2022-09-17T08:25:53;101857.56;;;14.16;44.14
55517;BME280;41724;51.176;-0.708;2022-09-17T08:28:20;101858.66;;;13.98;41.50
55517;BME280;41724;51.176;-0.708;2022-09-17T08:30:52;101860.62;;;14.37;42.71
55517;BME280;41724;51.176;-0.708;2022-09-17T08:33:20;101862.12;;;13.30;41.28
55517;BME280;41724;51.176;-0.708;2022-09-17T08:35:51;101865.35;;;13.72;41.17
55517;BME280;41724;51.176;-0.708;2022-09-17T08:38:18;101862.56;;;14.01;40.59
55517;BME280;41724;51.176;-0.708;2022-09-17T08:40:59;101865.88;;;14.39;41.80
55517;BME280;41724;51.176;-0.708;2022-09-17T08:43:31;101862.76;;;14.28;41.15
55517;BME280;41724;51.176;-0.708;2022-09-17T08:45:59;101862.55;;;14.75;40.13
55517;BME280;41724;51.176;-0.708;2022-09-17T08:48:45;101863.28;;;14.79;40.02
55517;BME280;41724;51.176;-0.708;2022-09-17T08:51:24;101866.38;;;14.52;39.58
55517;BME280;41724;51.176;-0.708;2022-09-17T08:54:02;101866.53;;;14.31;39.27
55517;BME280;41724;51.176;-0.708;2022-09-17T08:56:35;101867.36;;;14.29;39.80
55517;BME280;41724;51.176;-0.708;2022-09-17T08:59:14;101864.43;;;14.68;38.52
55517;BME280;41724;51.176;-0.708;2022-09-17T09:01:50;101873.09;;;14.08;39.45
55517;BME280;41724;51.176;-0.708;2022-09-17T09:04:34;101872.39;;;14.03;39.74
55517;BME280;41724;51.176;-0.708;2022-09-17T09:07:10;101871.12;;;14.45;39.19
55517;BME280;41724;51.176;-0.708;2022-09-17T09:09:42;101870.74;;;14.68;40.26
55517;BME280;41724;51.176;-0.708;2022-09-17T09:12:16;101869.05;;;14.96;38.33
55517;BME280;41724;51.176;-0.708;2022-09-17T09:14:50;101873.82;;;14.90;38.38
55517;BME280;41724;51.176;-0.708;2022-09-17T09:17:21;101871.47;;;15.40;38.83
55517;BME280;41724;51.176;-0.708;2022-09-17T09:19:51;101870.73;;;15.08;37.23
55517;BME280;41724;51.176;-0.708;2022-09-17T09:22:45;101870.05;;;14.96;38.56
55517;BME280;41724;51.176;-0.708;2022-09-17T09:25:18;101872.91;;;15.31;38.15
55517;BME280;41724;51.176;-0.708;2022-09-17T09:27:54;101870.07;;;15.53;37.45
55517;BME280;41724;51.176;-0.708;2022-09-17T09:30:24;101874.56;;;15.38;37.85
55517;BME280;41724;51.176;-0.708;2022-09-17T09:32:58;101872.48;;;15.83;36.54
55517;BME280;41724;51.176;-0.708;2022-09-17T09:35:29;101870.12;;;15.63;36.92
55517;BME280;41724;51.176;-0.708;2022-09-17T09:38:03;101868.46;;;15.66;37.86
55517;BME280;41724;51.176;-0.708;2022-09-17T09:40:40;101868.81;;;15.59;38.14
55517;BME280;41724;51.176;-0.708;2022-09-17T09:43:15;101868.25;;;15.32;39.45
55517;BME280;41724;51.176;-0.708;2022-09-17T09:46:59;101867.03;;;15.59;38.98
55517;BME280;41724;51.176;-0.708;2022-09-17T09:49:39;101860.32;;;15.55;38.57
55517;BME280;41724;51.176;-0.708;2022-09-17T09:52:21;101865.65;;;15.71;38.64
55517;BME280;41724;51.176;-0.708;2022-09-17T09:55:01;101863.11;;;15.28;39.27
55517;BME280;41724;51.176;-0.708;2022-09-17T09:57:38;101859.31;;;15.24;38.28
55517;BME280;41724;51.176;-0.708;2022-09-17T10:00:22;101861.51;;;15.37;38.44
55517;BME280;41724;51.176;-0.708;2022-09-17T10:02:52;101863.51;;;15.57;38.03
55517;BME280;41724;51.176;-0.708;2022-09-17T10:05:21;101860.02;;;15.65;39.55
55517;BME280;41724;51.176;-0.708;2022-09-17T10:07:48;101863.94;;;15.65;36.60
55517;BME280;41724;51.176;-0.708;2022-09-17T10:10:15;101864.39;;;15.37;35.93
55517;BME280;41724;51.176;-0.708;2022-09-17T10:12:42;101861.50;;;15.73;35.86
55517;BME280;41724;51.176;-0.708;2022-09-17T10:15:24;101860.83;;;16.07;34.73
55517;BME280;41724;51.176;-0.708;2022-09-17T10:18:10;101856.70;;;16.50;35.19
55517;BME280;41724;51.176;-0.708;2022-09-17T10:20:53;101863.14;;;15.59;34.90
55517;BME280;41724;51.176;-0.708;2022-09-17T10:23:22;101859.03;;;15.87;35.54
55517;BME280;41724;51.176;-0.708;2022-09-17T10:25:50;101853.26;;;16.36;35.65
55517;BME280;41724;51.176;-0.708;2022-09-17T10:28:44;101846.35;;;16.35;33.78
55517;BME280;41724;51.176;-0.708;2022-09-17T10:31:14;101849.20;;;16.54;34.54
55517;BME280;41724;51.176;-0.708;2022-09-17T10:33:52;101841.32;;;16.98;34.21
55517;BME280;41724;51.176;-0.708;2022-09-17T10:36:37;101844.85;;;17.62;33.66
55517;BME280;41724;51.176;-0.708;2022-09-17T10:39:37;101843.94;;;16.96;32.89
55517;BME280;41724;51.176;-0.708;2022-09-17T10:42:12;101839.97;;;17.54;35.03
55517;BME280;41724;51.176;-0.708;2022-09-17T10:44:51;101829.14;;;17.62;33.96
55517;BME280;41724;51.176;-0.708;2022-09-17T10:47:24;101839.03;;;17.77;32.48
55517;BME280;41724;51.176;-0.708;2022-09-17T10:49:59;101832.69;;;17.20;33.42
55517;BME280;41724;51.176;-0.708;2022-09-17T10:52:30;101833.47;;;17.28;32.23
55517;BME280;41724;51.176;-0.708;2022-09-17T10:55:35;101836.46;;;17.79;32.44
55517;BME280;41724;51.176;-0.708;2022-09-17T10:58:15;101838.53;;;18.23;32.92
55517;BME280;41724;51.176;-0.708;2022-09-17T11:00:59;101835.40;;;17.99;31.52
55517;BME280;41724;51.176;-0.708;2022-09-17T11:03:46;101832.55;;;17.85;31.43
55517;BME280;41724;51.176;-0.708;2022-09-17T11:06:30;101835.40;;;17.97;31.24
55517;BME280;41724;51.176;-0.708;2022-09-17T11:09:13;101829.85;;;17.71;30.89
55517;BME280;41724;51.176;-0.708;2022-09-17T11:11:55;101830.55;;;17.65;31.28
55517;BME280;41724;51.176;-0.708;2022-09-17T11:14:43;101824.65;;;18.44;30.57
55517;BME280;41724;51.176;-0.708;2022-09-17T11:17:23;101826.25;;;18.68;31.79
55517;BME280;41724;51.176;-0.708;2022-09-17T11:19:57;101829.42;;;18.79;31.45
55517;BME280;41724;51.176;-0.708;2022-09-17T11:22:39;101822.02;;;19.05;29.97
55517;BME280;41724;51.176;-0.708;2022-09-17T11:25:24;101823.03;;;19.17;31.49
55517;BME280;41724;51.176;-0.708;2022-09-17T11:28:03;101812.87;;;19.21;29.78
55517;BME280;41724;51.176;-0.708;2022-09-17T11:30:40;101810.35;;;19.32;29.81
55517;BME280;41724;51.176;-0.708;2022-09-17T11:33:27;101814.01;;;19.43;30.16
55517;BME280;41724;51.176;-0.708;2022-09-17T11:36:07;101813.27;;;18.86;28.99
55517;BME280;41724;51.176;-0.708;2022-09-17T11:38:39;101816.51;;;18.03;30.06
55517;BME280;41724;51.176;-0.708;2022-09-17T11:41:09;101814.00;;;18.49;29.95
55517;BME280;41724;51.176;-0.708;2022-09-17T11:43:42;101807.18;;;18.47;29.95
55517;BME280;41724;51.176;-0.708;2022-09-17T11:46:17;101804.47;;;18.50;30.04
55517;BME280;41724;51.176;-0.708;2022-09-17T11:48:56;101801.62;;;17.79;31.32
55517;BME280;41724;51.176;-0.708;2022-09-17T11:51:29;101799.66;;;18.33;31.47
55517;BME280;41724;51.176;-0.708;2022-09-17T11:54:00;101788.21;;;19.10;30.45
55517;BME280;41724;51.176;-0.708;2022-09-17T11:56:32;101784.99;;;19.35;28.43
55517;BME280;41724;51.176;-0.708;2022-09-17T11:59:04;101782.19;;;19.81;29.76
55517;BME280;41724;51.176;-0.708;2022-09-17T12:01:43;101777.57;;;19.54;28.88
55517;BME280;41724;51.176;-0.708;2022-09-17T12:04:31;101780.94;;;18.75;28.96
55517;BME280;41724;51.176;-0.708;2022-09-17T12:07:07;101772.90;;;18.97;28.45
55517;BME280;41724;51.176;-0.708;2022-09-17T12:09:40;101776.98;;;19.26;29.25
55517;BME280;41724;51.176;-0.708;2022-09-17T12:12:13;101775.90;;;20.13;29.56
55517;BME280;41724;51.176;-0.708;2022-09-17T12:14:47;101775.99;;;20.24;29.62
55517;BME280;41724;51.176;-0.708;2022-09-17T12:17:21;101772.48;;;19.47;28.30
55517;BME280;41724;51.176;-0.708;2022-09-17T12:19:53;101767.67;;;19.69;28.32
55517;BME280;41724;51.176;-0.708;2022-09-17T12:22:24;101768.02;;;20.55;29.45
55517;BME280;41724;51.176;-0.708;2022-09-17T12:24:53;101765.70;;;20.66;28.40
55517;BME280;41724;51.176;-0.708;2022-09-17T12:27:33;101767.89;;;19.92;29.36
55517;BME280;41724;51.176;-0.708;2022-09-17T12:30:09;101763.19;;;20.64;28.71
55517;BME280;41724;51.176;-0.708;2022-09-17T12:33:20;101761.19;;;20.71;28.01
55517;BME280;41724;51.176;-0.708;2022-09-17T12:36:33;101763.96;;;20.49;27.87
55517;BME280;41724;51.176;-0.708;2022-09-17T12:39:18;101767.07;;;20.56;29.17
55517;BME280;41724;51.176;-0.708;2022-09-17T12:41:59;101767.65;;;20.81;26.81
55517;BME280;41724;51.176;-0.708;2022-09-17T12:44:41;101765.28;;;20.93;27.42
55517;BME280;41724;51.176;-0.708;2022-09-17T12:47:32;101766.70;;;19.96;27.63
55517;BME280;41724;51.176;-0.708;2022-09-17T12:50:16;101755.56;;;21.01;28.40
55517;BME280;41724;51.176;-0.708;2022-09-17T12:52:58;101751.06;;;21.16;25.69
55517;BME280;41724;51.176;-0.708;2022-09-17T12:55:41;101751.98;;;20.88;27.18
55517;BME280;41724;51.176;-0.708;2022-09-17T12:58:24;101751.43;;;22.02;28.28
55517;BME280;41724;51.176;-0.708;2022-09-17T13:00:58;101754.09;;;21.97;27.17
55517;BME280;41724;51.176;-0.708;2022-09-17T13:03:31;101753.19;;;21.14;25.11
55517;BME280;41724;51.176;-0.708;2022-09-17T13:06:15;101745.19;;;21.36;24.06
55517;BME280;41724;51.176;-0.708;2022-09-17T13:09:05;101750.58;;;21.20;26.12
55517;BME280;41724;51.176;-0.708;2022-09-17T13:12:16;101742.48;;;21.19;25.42
55517;BME280;41724;51.176;-0.708;2022-09-17T13:15:01;101740.74;;;21.97;24.58